Time;durP1;ratioP1;P1;durP2;ratioP2;P2;SDS_P1;SDS_P2;PMS_P1;PMS_P2;Temp;Humidity;BMP_temperature;BMP_pressure;BME280_temperature;BME280_humidity;BME280_pressure;Samples;Min_cycle;Max_cycle;Signal;HPM_P1;HPM_P2
2022/09/08 00:01:57;;;;;;;2.83;1.05;;;23.10;92.50;;;;;;5046441;28;20215;-40
2022/09/08 00:04:30;;;;;;;2.92;1.20;;;23.00;92.40;;;;;;5053852;28;20200;-41
2022/09/08 00:06:57;;;;;;;4.38;1.13;;;23.00;92.50;;;;;;5049258;28;20307;-40
2022/09/08 00:09:24;;;;;;;2.53;1.10;;;22.90;92.60;;;;;;5055309;28;20224;-41
2022/09/08 00:11:54;;;;;;;2.92;1.58;;;22.90;92.70;;;;;;5046793;28;20318;-46
2022/09/08 00:14:22;;;;;;;2.15;1.08;;;22.80;92.70;;;;;;5061638;28;20237;-45
2022/09/08 00:16:50;;;;;;;4.65;1.10;;;22.70;92.70;;;;;;5053876;28;20208;-46
2022/09/08 00:19:17;;;;;;;1.67;0.80;;;22.70;92.80;;;;;;5055428;28;20215;-41
2022/09/08 00:21:47;;;;;;;3.63;0.85;;;22.60;92.70;;;;;;5054787;28;20200;-41
2022/09/08 00:24:14;;;;;;;2.33;0.95;;;22.60;92.80;;;;;;5053671;28;20219;-41
2022/09/08 00:26:44;;;;;;;2.15;0.90;;;22.60;92.90;;;;;;5045996;28;20713;-41
2022/09/08 00:29:13;;;;;;;3.20;1.00;;;22.50;92.90;;;;;;5052797;28;20232;-39
2022/09/08 00:31:41;;;;;;;3.35;1.00;;;22.50;93.00;;;;;;5047003;28;20732;-46
2022/09/08 00:34:09;;;;;;;2.00;0.77;;;22.50;92.80;;;;;;5055928;28;20208;-46
2022/09/08 00:36:40;;;;;;;2.33;0.90;;;22.40;92.90;;;;;;5066337;28;20208;-45
2022/09/08 00:39:08;;;;;;;2.03;1.00;;;22.30;92.90;;;;;;5060502;28;20224;-45
2022/09/08 00:41:39;;;;;;;3.60;1.23;;;22.30;92.90;;;;;;5056413;28;20231;-46
2022/09/08 00:44:36;;;;;;;3.80;1.02;;;22.30;93.00;;;;;;5052277;28;20227;-45
2022/09/08 00:47:05;;;;;;;3.65;1.00;;;22.30;93.50;;;;;;5049839;28;20222;-45
2022/09/08 00:49:33;;;;;;;4.78;1.35;;;22.20;93.40;;;;;;5052377;28;20236;-45
2022/09/08 00:52:00;;;;;;;2.33;1.10;;;22.20;93.30;;;;;;5050058;28;20405;-45
2022/09/08 00:54:27;;;;;;;3.85;1.15;;;22.20;93.40;;;;;;5061697;28;20200;-45
2022/09/08 00:56:57;;;;;;;2.97;1.10;;;22.20;93.30;;;;;;5049499;28;20204;-46
2022/09/08 00:59:26;;;;;;;2.70;1.00;;;22.20;93.40;;;;;;5061051;28;20231;-47
2022/09/08 01:01:54;;;;;;;1.65;0.95;;;22.20;93.50;;;;;;5054096;28;20208;-46
2022/09/08 01:04:24;;;;;;;2.83;1.20;;;22.20;93.80;;;;;;5056055;28;20221;-45
2022/09/08 01:12:53;;;;;;;3.03;1.10;;;22.00;93.60;;;;;;5062162;28;20596;-46
2022/09/08 01:15:23;;;;;;;5.30;1.35;;;22.00;93.70;;;;;;5064481;28;20450;-46
2022/09/08 01:17:57;;;;;;;3.53;1.13;;;21.90;93.80;;;;;;5052436;28;20602;-40
2022/09/08 01:20:31;;;;;;;2.17;1.20;;;22.00;93.90;;;;;;5053973;28;20200;-40
2022/09/08 01:23:34;;;;;;;2.92;1.08;;;21.90;94.00;;;;;;5056308;28;20235;-39
2022/09/08 01:26:20;;;;;;;3.80;1.17;;;21.90;94.20;;;;;;5051277;28;20269;-40
2022/09/08 01:28:58;;;;;;;5.57;1.27;;;21.80;94.30;;;;;;5068106;28;20268;-40
2022/09/08 01:31:29;;;;;;;3.55;1.00;;;21.80;94.00;;;;;;5068989;28;20635;-40
2022/09/08 01:33:59;;;;;;;2.85;1.10;;;21.80;94.10;;;;;;5063931;28;20203;-41
2022/09/08 01:36:28;;;;;;;3.22;1.20;;;21.70;94.00;;;;;;5082546;28;20206;-41
2022/09/08 01:39:00;;;;;;;3.00;1.17;;;21.70;94.00;;;;;;5059344;28;20633;-40
2022/09/08 01:41:27;;;;;;;3.08;1.00;;;21.70;94.00;;;;;;5068395;28;20250;-40
2022/09/08 01:43:59;;;;;;;3.17;1.20;;;21.70;94.10;;;;;;5061494;28;20228;-48
2022/09/08 01:46:30;;;;;;;4.60;1.05;;;21.70;94.20;;;;;;5070124;28;20219;-40
2022/09/08 01:49:00;;;;;;;3.78;1.27;;;21.60;94.30;;;;;;5054827;28;20212;-47
2022/09/08 01:51:27;;;;;;;3.20;1.30;;;21.60;94.30;;;;;;5067583;28;20701;-46
2022/09/08 01:53:54;;;;;;;3.05;1.17;;;21.60;94.40;;;;;;5066851;28;20642;-47
2022/09/08 01:56:22;;;;;;;4.35;1.40;;;21.60;94.30;;;;;;5058665;28;20307;-46
2022/09/08 01:58:49;;;;;;;2.53;1.02;;;21.60;94.30;;;;;;5057584;28;20232;-46
2022/09/08 02:01:18;;;;;;;3.70;1.30;;;21.60;94.30;;;;;;5075959;28;20199;-47
2022/09/08 02:03:48;;;;;;;4.57;1.58;;;21.60;94.40;;;;;;5053319;28;20208;-47
2022/09/08 02:06:18;;;;;;;3.88;1.42;;;21.50;94.30;;;;;;5049293;28;20628;-46
2022/09/08 02:08:50;;;;;;;2.60;1.40;;;21.60;94.40;;;;;;5060645;28;20220;-48
2022/09/08 02:11:17;;;;;;;2.13;1.20;;;21.60;94.60;;;;;;5048658;28;20204;-46
2022/09/08 02:13:45;;;;;;;3.38;1.20;;;21.50;94.40;;;;;;5048006;28;20204;-46
2022/09/08 02:16:12;;;;;;;3.50;1.60;;;21.50;94.40;;;;;;5047228;28;20274;-46
2022/09/08 02:18:40;;;;;;;2.83;1.50;;;21.50;94.50;;;;;;5061583;28;20208;-47
2022/09/08 02:21:13;;;;;;;3.92;1.70;;;21.50;94.50;;;;;;5048043;28;20212;-45
2022/09/08 02:23:44;;;;;;;2.65;1.27;;;21.40;94.80;;;;;;5058079;28;20214;-46
2022/09/08 02:26:20;;;;;;;4.50;1.60;;;21.40;94.70;;;;;;5048272;28;20211;-40
2022/09/08 02:28:53;;;;;;;3.72;1.38;;;21.40;94.70;;;;;;5047896;28;20223;-41
2022/09/08 02:31:25;;;;;;;3.70;1.50;;;21.40;94.80;;;;;;5049209;28;20553;-40
2022/09/08 02:33:53;;;;;;;4.68;1.70;;;21.40;94.70;;;;;;5065203;28;20215;-41
2022/09/08 02:36:21;;;;;;;2.78;1.20;;;21.40;94.60;;;;;;5052017;28;20258;-40
2022/09/08 02:38:55;;;;;;;3.13;1.50;;;21.30;94.70;;;;;;5048399;28;20675;-40
2022/09/08 02:41:26;;;;;;;3.08;1.25;;;21.30;94.70;;;;;;5067158;28;20310;-40
2022/09/08 02:43:56;;;;;;;3.67;1.20;;;21.30;94.90;;;;;;5058187;28;20206;-40
2022/09/08 02:46:24;;;;;;;2.50;1.27;;;21.30;94.80;;;;;;5061450;28;20632;-40
2022/09/08 02:48:52;;;;;;;5.65;1.65;;;21.30;94.80;;;;;;5044318;28;20251;-40
2022/09/08 02:51:19;;;;;;;3.13;1.70;;;21.30;94.90;;;;;;5046639;28;20311;-45
2022/09/08 02:53:47;;;;;;;3.30;1.60;;;21.30;94.80;;;;;;5047761;28;20250;-46
2022/09/08 02:56:16;;;;;;;4.30;1.52;;;21.30;95.00;;;;;;5055914;28;20234;-45
2022/09/08 02:58:44;;;;;;;3.90;1.60;;;21.30;95.00;;;;;;5046455;28;20235;-46
2022/09/08 03:01:11;;;;;;;4.28;1.60;;;21.30;95.20;;;;;;5050313;28;20287;-45
2022/09/08 03:03:43;;;;;;;4.03;1.73;;;21.20;95.10;;;;;;5055224;28;20202;-41
2022/09/08 03:06:24;;;;;;;3.42;1.60;;;21.20;95.20;;;;;;5046125;28;20184;-40
2022/09/08 03:08:52;;;;;;;3.40;1.73;;;21.20;95.30;;;;;;5048600;28;20762;-44
2022/09/08 03:11:21;;;;;;;2.92;1.80;;;21.20;95.10;;;;;;5048285;28;20204;-40
2022/09/08 03:13:48;;;;;;;6.75;2.72;;;21.20;95.10;;;;;;5052290;28;20202;-41
2022/09/08 03:16:16;;;;;;;3.17;2.00;;;21.20;95.40;;;;;;5051843;28;20952;-40
2022/09/08 03:18:50;;;;;;;4.25;2.70;;;21.20;95.20;;;;;;5061928;28;20269;-40
2022/09/08 03:21:17;;;;;;;4.47;2.22;;;21.20;95.30;;;;;;5047787;28;20353;-40
2022/09/08 03:23:45;;;;;;;5.78;1.98;;;21.20;95.40;;;;;;5047744;28;20691;-40
2022/09/08 03:26:18;;;;;;;4.38;1.85;;;21.10;95.60;;;;;;5063414;28;20284;-45
2022/09/08 03:28:51;;;;;;;3.97;1.85;;;21.20;95.40;;;;;;5052460;28;20204;-44
2022/09/08 03:31:20;;;;;;;5.20;1.75;;;21.10;95.40;;;;;;5049871;28;20315;-46
2022/09/08 03:33:53;;;;;;;3.65;1.85;;;21.10;95.40;;;;;;5067687;28;20210;-45
2022/09/08 03:36:22;;;;;;;3.70;1.77;;;21.10;95.50;;;;;;5060158;28;20210;-45
2022/09/08 03:38:50;;;;;;;3.03;1.80;;;21.10;95.60;;;;;;5073766;28;20760;-44
2022/09/08 03:41:17;;;;;;;3.08;1.50;;;21.10;95.60;;;;;;5058051;28;20670;-44
2022/09/08 03:43:47;;;;;;;3.53;1.60;;;21.10;95.60;;;;;;5060216;28;20599;-45
2022/09/08 03:46:16;;;;;;;3.85;1.70;;;21.10;95.70;;;;;;5051176;28;20307;-45
2022/09/08 03:48:46;;;;;;;3.20;1.80;;;21.10;95.60;;;;;;5059929;28;20197;-47
2022/09/08 03:51:22;;;;;;;3.50;1.65;;;21.10;95.70;;;;;;5048011;28;20295;-45
2022/09/08 03:54:46;;;;;;;4.15;1.75;;;21.00;95.80;;;;;;5047292;28;20204;-47
2022/09/08 03:56:48;;;;;;;2.30;2.10;;;21.00;95.80;;;;;;5064212;28;20208;-46
2022/09/08 03:59:18;;;;;;;3.03;1.85;;;21.00;95.80;;;;;;5046111;28;20286;-48
2022/09/08 04:01:48;;;;;;;3.65;2.08;;;21.00;95.80;;;;;;5054640;28;20220;-45
2022/09/08 04:04:17;;;;;;;4.63;1.80;;;21.00;95.90;;;;;;5051281;28;20852;-46
2022/09/08 04:06:47;;;;;;;5.15;2.08;;;21.00;96.00;;;;;;5060657;28;20740;-45
2022/09/08 04:09:14;;;;;;;3.10;2.22;;;21.00;95.90;;;;;;5063420;28;20219;-46
2022/09/08 04:11:41;;;;;;;7.93;2.08;;;21.00;96.00;;;;;;5046482;28;20291;-44
2022/09/08 04:14:13;;;;;;;4.63;2.30;;;21.00;96.00;;;;;;5046468;28;20242;-47
2022/09/08 04:16:43;;;;;;;5.30;2.10;;;21.00;96.00;;;;;;5059762;28;20200;-46
2022/09/08 04:19:14;;;;;;;3.60;1.80;;;21.00;96.10;;;;;;5061068;28;20324;-46
2022/09/08 04:21:41;;;;;;;3.53;2.05;;;21.00;96.10;;;;;;5051649;28;20639;-45
2022/09/08 04:24:08;;;;;;;3.75;2.00;;;21.00;96.00;;;;;;5050986;28;20254;-45
2022/09/08 04:26:37;;;;;;;3.30;2.03;;;21.00;96.00;;;;;;5049764;28;20307;-45
2022/09/08 04:29:06;;;;;;;4.25;2.42;;;21.00;96.00;;;;;;5064323;28;20689;-49
2022/09/08 04:31:35;;;;;;;4.35;2.05;;;21.10;96.20;;;;;;5061195;28;20793;-44
2022/09/08 04:34:04;;;;;;;3.60;2.38;;;21.00;96.00;;;;;;5087943;28;20207;-46
2022/09/08 04:36:32;;;;;;;3.03;1.90;;;21.00;96.10;;;;;;5055356;28;20216;-47
2022/09/08 04:39:02;;;;;;;4.55;2.40;;;21.00;96.10;;;;;;5076955;28;20205;-44
2022/09/08 04:41:31;;;;;;;6.07;2.47;;;21.00;96.20;;;;;;5054805;28;20200;-46
2022/09/08 04:44:04;;;;;;;5.22;2.40;;;21.00;96.10;;;;;;5057801;28;20226;-40
2022/09/08 04:46:36;;;;;;;4.03;2.40;;;21.00;96.00;;;;;;5063432;28;20207;-40
2022/09/08 04:49:04;;;;;;;4.55;2.08;;;20.90;96.20;;;;;;5070434;28;20648;-40
2022/09/08 04:51:32;;;;;;;3.97;2.10;;;20.90;96.40;;;;;;5050336;28;20192;-45
2022/09/08 04:54:04;;;;;;;3.80;2.20;;;20.90;96.10;;;;;;5049604;28;20231;-45
2022/09/08 04:56:32;;;;;;;5.32;2.70;;;20.90;96.20;;;;;;5053082;28;20196;-45
2022/09/08 04:59:04;;;;;;;5.03;2.78;;;20.90;96.10;;;;;;5049440;28;20807;-45
2022/09/08 05:01:39;;;;;;;5.70;3.00;;;20.90;96.30;;;;;;5053725;28;20217;-44
2022/09/08 05:04:07;;;;;;;3.85;2.60;;;20.90;96.30;;;;;;5086098;28;20298;-46
2022/09/08 05:06:35;;;;;;;3.83;2.90;;;20.80;96.30;;;;;;5067553;28;20200;-45
2022/09/08 05:09:06;;;;;;;4.13;2.45;;;20.80;96.30;;;;;;5070102;28;20231;-46
2022/09/08 05:11:34;;;;;;;5.13;3.15;;;20.80;96.50;;;;;;5051510;28;20290;-46
2022/09/08 05:14:04;;;;;;;4.55;2.83;;;20.80;96.40;;;;;;5065487;28;20630;-45
2022/09/08 05:16:31;;;;;;;3.80;2.50;;;20.70;96.50;;;;;;5055579;28;20200;-45
2022/09/08 05:19:01;;;;;;;5.22;3.00;;;20.70;96.40;;;;;;5069267;28;20218;-45
2022/09/08 05:21:36;;;;;;;5.60;3.00;;;20.70;96.40;;;;;;5051265;28;20256;-44
2022/09/08 05:24:04;;;;;;;8.60;3.00;;;20.70;96.50;;;;;;5050089;28;20238;-48
2022/09/08 05:26:31;;;;;;;5.45;2.90;;;20.60;96.60;;;;;;5056108;28;20738;-46
2022/09/08 05:28:59;;;;;;;3.17;2.55;;;20.60;96.40;;;;;;5046956;28;20204;-47
2022/09/08 05:31:28;;;;;;;5.45;2.85;;;20.60;96.50;;;;;;5052799;28;20227;-44
2022/09/08 05:33:58;;;;;;;6.13;3.47;;;20.60;96.60;;;;;;5061388;28;20230;-46
2022/09/08 05:36:31;;;;;;;5.72;2.97;;;20.60;96.50;;;;;;5057354;28;20212;-46
2022/09/08 05:39:00;;;;;;;6.85;3.58;;;20.50;96.40;;;;;;5067150;28;20208;-47
2022/09/08 05:41:29;;;;;;;4.50;2.60;;;20.50;96.40;;;;;;5051963;28;20215;-46
2022/09/08 05:43:58;;;;;;;5.43;3.15;;;20.50;96.50;;;;;;5051591;28;20211;-47
2022/09/08 05:46:29;;;;;;;6.95;3.03;;;20.50;96.50;;;;;;5057163;28;20558;-47
2022/09/08 05:49:01;;;;;;;6.03;2.97;;;20.50;96.50;;;;;;5059435;28;20605;-47
2022/09/08 05:51:32;;;;;;;6.13;3.33;;;20.50;96.50;;;;;;5062735;28;20299;-45
2022/09/08 05:54:06;;;;;;;6.13;3.28;;;20.50;96.60;;;;;;5057199;28;20200;-45
2022/09/08 05:56:33;;;;;;;4.47;3.20;;;20.50;96.40;;;;;;5065658;28;20204;-46
2022/09/08 05:59:00;;;;;;;5.15;3.10;;;20.50;96.50;;;;;;5055597;28;20326;-46
2022/09/08 06:01:33;;;;;;;3.53;2.30;;;20.50;96.40;;;;;;5062254;28;20223;-47
2022/09/08 06:04:02;;;;;;;4.47;3.08;;;20.40;96.30;;;;;;5058115;28;20216;-47
2022/09/08 06:06:31;;;;;;;5.63;2.58;;;20.40;96.30;;;;;;5048040;28;20208;-47
2022/09/08 06:09:00;;;;;;;8.23;3.10;;;20.30;96.30;;;;;;5048013;28;20295;-46
2022/09/08 06:11:32;;;;;;;3.83;2.50;;;20.30;96.40;;;;;;5057815;28;20753;-47
2022/09/08 06:14:05;;;;;;;4.25;2.30;;;20.30;96.60;;;;;;5055449;28;20717;-46
2022/09/08 06:16:36;;;;;;;5.90;2.42;;;20.30;96.50;;;;;;5048147;28;20202;-39
2022/09/08 06:19:11;;;;;;;5.43;2.40;;;20.30;96.50;;;;;;5055016;28;20246;-39
2022/09/08 06:21:38;;;;;;;6.78;2.50;;;20.30;96.40;;;;;;5058578;28;20691;-39
2022/09/08 06:24:13;;;;;;;3.42;1.85;;;20.30;96.40;;;;;;5064567;28;20259;-39
2022/09/08 06:26:48;;;;;;;3.20;1.90;;;20.30;96.40;;;;;;5060294;28;20257;-39
2022/09/08 06:29:31;;;;;;;7.10;1.75;;;20.30;96.40;;;;;;5064013;28;20203;-39
2022/09/08 06:32:18;;;;;;;7.32;1.92;;;20.30;96.40;;;;;;5048177;28;20204;-39
2022/09/08 06:34:50;;;;;;;4.50;2.08;;;20.30;96.50;;;;;;5052646;28;20507;-39
2022/09/08 06:37:27;;;;;;;4.82;2.15;;;20.30;96.60;;;;;;5057876;28;20578;-47
2022/09/08 06:40:13;;;;;;;4.30;1.83;;;20.30;96.60;;;;;;5062581;28;20211;-47
2022/09/08 06:42:46;;;;;;;6.97;2.30;;;20.30;96.60;;;;;;5062354;28;20258;-39
2022/09/08 06:45:22;;;;;;;4.35;1.88;;;20.30;96.60;;;;;;5055065;28;20250;-46
2022/09/08 06:48:08;;;;;;;6.07;1.80;;;20.30;96.80;;;;;;5059162;28;20207;-46
2022/09/08 06:50:40;;;;;;;2.75;1.83;;;20.30;96.80;;;;;;5055724;28;20231;-47
2022/09/08 06:53:19;;;;;;;6.50;2.10;;;20.30;96.70;;;;;;5046115;28;20206;-45
2022/09/08 06:55:55;;;;;;;5.78;1.85;;;20.40;97.20;;;;;;5046457;28;20290;-46
2022/09/08 06:58:44;;;;;;;5.05;1.73;;;20.40;96.80;;;;;;5058416;28;20319;-45
2022/09/08 07:01:30;;;;;;;5.28;1.85;;;20.40;97.00;;;;;;5046871;28;20667;-46
2022/09/08 07:04:17;;;;;;;7.88;1.88;;;20.50;97.00;;;;;;5078605;28;20219;-46
2022/09/08 07:07:01;;;;;;;3.78;2.00;;;20.40;96.90;;;;;;5053863;28;20207;-46
2022/09/08 07:09:34;;;;;;;4.85;1.75;;;20.50;97.30;;;;;;5047503;28;20223;-46
2022/09/08 07:12:35;;;;;;;3.25;1.52;;;20.50;96.90;;;;;;5057017;28;20505;-46
2022/09/08 07:15:13;;;;;;;8.63;2.30;;;20.50;97.00;;;;;;5045526;28;20238;-45
2022/09/08 07:17:51;;;;;;;2.65;1.80;;;20.50;97.10;;;;;;5048048;28;20662;-46
2022/09/08 07:20:25;;;;;;;4.55;1.70;;;20.50;97.30;;;;;;5052854;28;20200;-46
2022/09/08 07:22:59;;;;;;;4.80;2.13;;;20.50;97.00;;;;;;5059389;28;20200;-46
2022/09/08 07:25:42;;;;;;;4.80;2.22;;;20.50;97.10;;;;;;5046058;28;20308;-46
2022/09/08 07:28:21;;;;;;;3.88;1.90;;;20.60;97.10;;;;;;5050930;28;20204;-46
2022/09/08 07:30:59;;;;;;;4.18;1.70;;;20.60;97.10;;;;;;5049412;28;20740;-46
2022/09/08 07:33:37;;;;;;;5.35;1.90;;;20.60;97.20;;;;;;5045466;28;20208;-46
2022/09/08 07:36:11;;;;;;;4.03;1.70;;;20.70;97.20;;;;;;5047542;28;20215;-45
2022/09/08 07:38:49;;;;;;;5.10;1.63;;;20.70;97.10;;;;;;5066094;28;20745;-46
2022/09/08 07:41:28;;;;;;;6.68;1.83;;;20.70;97.10;;;;;;5057910;28;20215;-39
2022/09/08 07:44:00;;;;;;;4.25;1.55;;;20.70;97.20;;;;;;5051954;28;20216;-39
2022/09/08 07:46:50;;;;;;;5.28;1.65;;;20.80;97.20;;;;;;5054312;28;20204;-39
2022/09/08 07:49:26;;;;;;;3.05;1.60;;;20.80;97.40;;;;;;5066658;28;20315;-39
2022/09/08 07:52:25;;;;;;;4.50;1.60;;;20.80;97.30;;;;;;5065373;28;20272;-39
2022/09/08 07:54:55;;;;;;;3.83;1.77;;;20.90;97.50;;;;;;5061414;28;20586;-39
2022/09/08 07:57:47;;;;;;;4.85;1.65;;;20.90;97.40;;;;;;5046505;28;20223;-39
2022/09/08 08:00:31;;;;;;;3.70;1.70;;;20.90;97.40;;;;;;5049188;28;20211;-39
2022/09/08 08:03:13;;;;;;;4.32;1.80;;;20.90;97.30;;;;;;5051411;28;21009;-39
2022/09/08 08:05:45;;;;;;;4.18;1.55;;;21.00;97.30;;;;;;5052235;28;20295;-40
2022/09/08 08:08:18;;;;;;;5.15;1.38;;;21.00;97.30;;;;;;5057462;28;20231;-39
2022/09/08 08:10:59;;;;;;;6.57;1.80;;;21.00;97.30;;;;;;5046662;28;20710;-39
2022/09/08 08:13:49;;;;;;;3.95;1.25;;;21.00;97.30;;;;;;5044302;28;20208;-39
2022/09/08 08:16:40;;;;;;;3.40;1.27;;;21.00;97.30;;;;;;5050499;28;20666;-39
2022/09/08 08:19:22;;;;;;;7.55;1.67;;;21.00;97.30;;;;;;5047045;28;20249;-40
2022/09/08 08:22:05;;;;;;;8.00;1.60;;;21.00;97.50;;;;;;5046551;28;20203;-39
2022/09/08 08:24:39;;;;;;;8.48;2.28;;;21.10;97.50;;;;;;5057921;28;20208;-39
2022/09/08 08:27:24;;;;;;;5.20;1.77;;;21.10;97.50;;;;;;5064018;28;20215;-39
2022/09/08 08:30:21;;;;;;;7.43;1.90;;;21.20;97.50;;;;;;5064825;28;20207;-39
2022/09/08 08:33:08;;;;;;;4.35;1.48;;;21.30;97.60;;;;;;5066246;28;20208;-39
2022/09/08 08:35:47;;;;;;;11.10;1.83;;;21.30;97.60;;;;;;5050931;28;20259;-38
2022/09/08 08:38:37;;;;;;;7.70;1.45;;;21.40;97.60;;;;;;5053524;28;20204;-40
2022/09/08 08:41:35;;;;;;;11.75;1.73;;;21.40;97.40;;;;;;5063304;28;20583;-39
2022/09/08 08:44:41;;;;;;;4.82;1.48;;;21.50;97.30;;;;;;5054647;28;20199;-40
2022/09/08 08:47:35;;;;;;;4.88;1.60;;;21.50;97.40;;;;;;5045426;28;20208;-47
2022/09/08 08:50:40;;;;;;;3.17;1.38;;;21.50;97.20;;;;;;5055694;28;20200;-47
2022/09/08 08:53:33;;;;;;;5.80;1.65;;;21.50;97.40;;;;;;5053722;28;20237;-46
2022/09/08 08:56:29;;;;;;;5.43;1.25;;;21.50;97.20;;;;;;5056622;28;20310;-46
2022/09/08 08:59:38;;;;;;;7.90;1.83;;;21.60;97.20;;;;;;5047204;28;20297;-47
2022/09/08 09:02:11;;;;;;;7.85;1.42;;;21.70;97.10;;;;;;5059605;28;20218;-46
2022/09/08 09:04:52;;;;;;;4.15;1.10;;;21.70;96.80;;;;;;5057995;28;20211;-45
2022/09/08 09:07:46;;;;;;;4.03;1.10;;;21.70;96.90;;;;;;5056246;28;20200;-46
2022/09/08 09:10:47;;;;;;;4.15;1.30;;;21.70;97.10;;;;;;5050260;28;20231;-46
2022/09/08 09:13:29;;;;;;;3.60;1.08;;;21.70;97.20;;;;;;5047172;28;20281;-47
2022/09/08 09:16:38;;;;;;;3.35;0.90;;;21.80;97.10;;;;;;5051917;28;20269;-45
2022/09/08 09:19:25;;;;;;;6.22;1.20;;;21.80;96.90;;;;;;5065626;28;20234;-45
2022/09/08 09:22:11;;;;;;;4.75;1.30;;;21.80;97.00;;;;;;5049268;28;20315;-45
2022/09/08 09:24:57;;;;;;;3.00;1.10;;;21.90;97.00;;;;;;5049900;28;20237;-45
2022/09/08 09:27:41;;;;;;;7.65;1.40;;;21.90;97.00;;;;;;5053304;28;20214;-47
2022/09/08 09:30:14;;;;;;;5.68;1.40;;;22.00;96.80;;;;;;5058900;28;20235;-45
2022/09/08 09:33:03;;;;;;;6.75;1.70;;;22.00;97.00;;;;;;5049524;28;20304;-46
2022/09/08 09:35:42;;;;;;;4.65;1.00;;;22.10;97.00;;;;;;5052528;28;20602;-45
2022/09/08 09:38:18;;;;;;;4.55;1.30;;;22.10;97.00;;;;;;5061250;28;20254;-47
2022/09/08 09:41:06;;;;;;;4.28;1.73;;;22.10;96.70;;;;;;5056705;28;20219;-45
2022/09/08 09:44:01;;;;;;;6.65;1.52;;;22.20;97.00;;;;;;5044811;28;20240;-45
2022/09/08 09:46:46;;;;;;;5.97;1.50;;;22.20;96.80;;;;;;5048196;28;20265;-45
2022/09/08 09:49:35;;;;;;;5.00;0.90;;;22.20;96.90;;;;;;5050152;28;20318;-45
2022/09/08 09:52:22;;;;;;;3.25;0.93;;;22.20;96.80;;;;;;5058090;28;20266;-48
2022/09/08 09:54:58;;;;;;;3.20;1.00;;;22.20;96.30;;;;;;5031928;28;20219;-47
2022/09/08 09:57:44;;;;;;;4.00;1.25;;;22.30;96.60;;;;;;5063737;28;20552;-48
2022/09/08 10:00:19;;;;;;;4.63;0.90;;;22.30;96.20;;;;;;5056611;28;20199;-48
2022/09/08 10:02:56;;;;;;;4.38;0.93;;;22.40;96.30;;;;;;5053541;28;20624;-46
2022/09/08 10:05:37;;;;;;;3.67;0.93;;;22.50;96.40;;;;;;5057397;28;20651;-47
2022/09/08 10:08:26;;;;;;;4.30;1.20;;;22.50;96.50;;;;;;5050653;28;20237;-48
2022/09/08 10:11:30;;;;;;;3.58;1.25;;;22.60;95.90;;;;;;5047222;28;20211;-47
2022/09/08 10:14:09;;;;;;;6.50;1.30;;;22.60;95.90;;;;;;5057062;28;20208;-45
2022/09/08 10:17:08;;;;;;;4.18;1.27;;;22.60;95.90;;;;;;5056236;28;20196;-47
2022/09/08 10:19:57;;;;;;;5.47;1.20;;;22.70;95.20;;;;;;5049827;28;20832;-48
2022/09/08 10:22:40;;;;;;;8.55;1.27;;;22.60;95.80;;;;;;5052364;28;20227;-47
2022/09/08 10:25:21;;;;;;;12.43;2.03;;;22.60;94.70;;;;;;5062321;28;20237;-48
2022/09/08 10:28:13;;;;;;;12.05;1.95;;;22.60;95.30;;;;;;5066141;28;20203;-47
2022/09/08 10:31:11;;;;;;;11.25;2.63;;;22.60;94.90;;;;;;5060763;28;20224;-47
2022/09/08 10:34:38;;;;;;;23.77;3.17;;;22.60;94.90;;;;;;5056906;28;20620;-47
2022/09/08 10:37:32;;;;;;;6.78;1.55;;;22.60;94.60;;;;;;5070053;28;20214;-45
2022/09/08 10:40:18;;;;;;;3.67;1.13;;;22.60;94.50;;;;;;5060324;28;20221;-47
2022/09/08 10:42:56;;;;;;;5.03;1.05;;;22.60;94.40;;;;;;5063522;28;20672;-48
2022/09/08 10:45:47;;;;;;;8.55;1.33;;;22.60;94.90;;;;;;5054119;28;20211;-47
2022/09/08 10:48:32;;;;;;;7.93;1.20;;;22.70;94.00;;;;;;5054388;28;20247;-46
2022/09/08 10:51:23;;;;;;;7.78;1.45;;;22.70;94.10;;;;;;5056339;28;20225;-40
2022/09/08 10:53:57;;;;;;;5.15;1.27;;;22.70;93.50;;;;;;5045831;28;20208;-36
2022/09/08 10:56:31;;;;;;;6.18;1.52;;;22.70;93.80;;;;;;5053838;28;20212;-38
2022/09/08 10:59:21;;;;;;;7.28;1.80;;;22.70;94.40;;;;;;5052634;28;20324;-38
2022/09/08 11:02:26;;;;;;;4.78;1.33;;;22.70;93.60;;;;;;5047400;28;20686;-38
2022/09/08 11:05:09;;;;;;;5.07;1.38;;;22.70;94.10;;;;;;5062370;28;20226;-38
2022/09/08 11:08:08;;;;;;;4.10;1.20;;;22.70;94.10;;;;;;5049966;28;20222;-40
2022/09/08 11:10:50;;;;;;;8.43;1.55;;;22.70;94.70;;;;;;5057193;28;20201;-39
2022/09/08 11:13:33;;;;;;;5.93;1.58;;;22.80;94.70;;;;;;5046660;28;20725;-39
2022/09/08 11:16:18;;;;;;;4.30;1.23;;;22.90;93.80;;;;;;5048981;28;20274;-39
2022/09/08 11:18:57;;;;;;;5.68;1.52;;;22.90;94.20;;;;;;5047523;28;20645;-40
2022/09/08 11:21:41;;;;;;;4.65;1.55;;;22.90;93.50;;;;;;5057689;28;20211;-40
2022/09/08 11:24:29;;;;;;;9.82;1.52;;;23.00;93.80;;;;;;5055294;28;20220;-40
2022/09/08 11:27:15;;;;;;;5.72;1.35;;;23.00;93.50;;;;;;5050849;28;20208;-40
2022/09/08 11:30:16;;;;;;;6.10;1.45;;;23.00;92.90;;;;;;5045754;28;20218;-40
2022/09/08 11:32:52;;;;;;;5.95;2.10;;;23.00;93.80;;;;;;5047420;28;20556;-40
2022/09/08 11:35:33;;;;;;;7.45;1.42;;;23.00;93.70;;;;;;5045929;28;20651;-40
2022/09/08 11:38:27;;;;;;;6.30;1.50;;;23.10;93.20;;;;;;5082246;28;20725;-40
2022/09/08 11:41:08;;;;;;;6.40;1.38;;;23.10;93.60;;;;;;5047411;28;20221;-40
2022/09/08 11:43:50;;;;;;;7.38;1.60;;;23.10;93.60;;;;;;5046371;28;20350;-40
2022/09/08 11:46:23;;;;;;;7.90;1.63;;;23.10;94.00;;;;;;5048520;28;20207;-40
2022/09/08 11:49:22;;;;;;;6.90;1.60;;;23.10;93.80;;;;;;5055191;28;20238;-40
2022/09/08 11:52:24;;;;;;;7.15;1.33;;;23.20;94.20;;;;;;5046020;28;20227;-40
2022/09/08 11:55:55;;;;;;;6.20;1.60;;;23.20;94.10;;;;;;5049291;28;20600;-40
2022/09/08 11:58:42;;;;;;;6.80;1.35;;;23.30;94.00;;;;;;5053637;28;20235;-40
2022/09/08 12:01:34;;;;;;;6.90;1.80;;;23.30;94.10;;;;;;5054761;28;20208;-40
2022/09/08 12:04:22;;;;;;;6.70;1.60;;;23.30;94.00;;;;;;5051458;28;20206;-40
2022/09/08 12:06:55;;;;;;;5.97;1.52;;;23.30;93.70;;;;;;5031414;28;20234;-40
2022/09/08 12:09:32;;;;;;;4.40;1.20;;;23.30;93.90;;;;;;5045600;28;20677;-39
2022/09/08 12:12:10;;;;;;;6.82;1.13;;;23.30;94.20;;;;;;5046202;28;20543;-40
2022/09/08 12:14:54;;;;;;;8.38;1.63;;;23.30;94.10;;;;;;5048904;28;20849;-40
2022/09/08 12:17:28;;;;;;;5.38;1.50;;;23.30;94.00;;;;;;5057660;28;20212;-40
2022/09/08 12:20:15;;;;;;;3.47;1.15;;;23.30;93.90;;;;;;5046479;28;20200;-40
2022/09/08 12:23:24;;;;;;;5.43;1.35;;;23.30;93.90;;;;;;5050100;28;20208;-40
2022/09/08 12:26:04;;;;;;;17.13;2.67;;;23.30;94.00;;;;;;5056010;28;20203;-40
2022/09/08 12:28:48;;;;;;;6.75;1.73;;;23.30;93.80;;;;;;5044936;28;20672;-41
2022/09/08 12:31:42;;;;;;;3.95;1.33;;;23.30;94.20;;;;;;5055836;28;20254;-39
2022/09/08 12:34:32;;;;;;;4.40;1.30;;;23.20;94.00;;;;;;5046829;28;20212;-41
2022/09/08 12:37:13;;;;;;;8.15;1.63;;;23.20;94.10;;;;;;5064957;28;20221;-39
2022/09/08 12:40:17;;;;;;;6.38;1.55;;;23.20;94.10;;;;;;5075942;28;20198;-41
2022/09/08 12:43:03;;;;;;;5.30;1.45;;;23.20;94.30;;;;;;5063262;28;20246;-39
2022/09/08 12:45:53;;;;;;;6.15;1.58;;;23.20;93.80;;;;;;5067587;28;20207;-41
2022/09/08 12:48:55;;;;;;;2.85;1.20;;;23.20;93.00;;;;;;5061021;28;20204;-41
2022/09/08 12:51:33;;;;;;;5.40;1.30;;;23.30;93.80;;;;;;5063620;28;20215;-41
2022/09/08 12:54:18;;;;;;;5.10;1.02;;;23.20;93.80;;;;;;5050780;28;20208;-40
2022/09/08 12:56:47;;;;;;;4.85;0.98;;;23.30;93.20;;;;;;5053579;28;20215;-41
2022/09/08 12:59:21;;;;;;;3.75;0.80;;;23.30;93.70;;;;;;5053663;28;20734;-40
2022/09/08 13:02:07;;;;;;;29.38;4.50;;;23.30;93.70;;;;;;5053794;28;20215;-40
2022/09/08 13:05:15;;;;;;;15.93;2.83;;;23.30;94.00;;;;;;5051036;28;20319;-40
2022/09/08 13:07:52;;;;;;;24.15;3.88;;;23.30;94.20;;;;;;5054569;28;20649;-40
2022/09/08 13:10:27;;;;;;;11.55;2.28;;;23.40;93.70;;;;;;5050653;28;20630;-40
2022/09/08 13:13:09;;;;;;;63.25;8.65;;;23.40;93.90;;;;;;5046638;28;20239;-40
2022/09/08 13:16:00;;;;;;;15.10;2.55;;;23.40;93.90;;;;;;5068149;28;20227;-40
2022/09/08 13:18:47;;;;;;;6.85;1.75;;;23.30;94.70;;;;;;5063359;28;20765;-40
2022/09/08 13:21:41;;;;;;;4.50;1.42;;;23.20;95.70;;;;;;5065316;28;20200;-41
2022/09/08 13:24:32;;;;;;;5.13;1.40;;;23.10;95.80;;;;;;5055046;28;20208;-40
2022/09/08 13:27:26;;;;;;;6.63;1.40;;;23.10;96.10;;;;;;5064970;28;20219;-39
2022/09/08 13:30:16;;;;;;;3.80;1.48;;;23.00;96.40;;;;;;5057382;28;20211;-39
2022/09/08 13:33:08;;;;;;;4.00;1.52;;;22.90;96.00;;;;;;5048900;28;20231;-39
2022/09/08 13:36:19;;;;;;;7.03;2.15;;;22.90;96.00;;;;;;5058671;28;20215;-39
2022/09/08 13:39:03;;;;;;;7.68;2.33;;;22.70;95.80;;;;;;5049098;28;20193;-39
2022/09/08 13:41:48;;;;;;;10.43;2.70;;;22.70;96.00;;;;;;5063795;28;20217;-35
2022/09/08 13:44:36;;;;;;;7.85;2.50;;;22.70;96.10;;;;;;5054557;28;20226;-34
2022/09/08 13:47:19;;;;;;;5.95;2.15;;;22.70;96.40;;;;;;5065280;28;20342;-34
2022/09/08 13:49:58;;;;;;;5.07;1.60;;;22.70;96.30;;;;;;5061733;28;20196;-35